Time;durP1;ratioP1;P1;durP2;ratioP2;P2;SDS_P1;SDS_P2;PMS_P1;PMS_P2;Temp;Humidity;BMP_temperature;BMP_pressure;BME280_temperature;BME280_humidity;BME280_pressure;Samples;Min_cycle;Max_cycle;Signal;HPM_P1;HPM_P2
2022/01/07 00:00:00;;;;;;;20.70;7.10;;;4.00;99.90;;;;;;5089297;27;20510;-85
2022/01/07 00:02:26;;;;;;;19.88;7.28;;;4.00;99.90;;;;;;5089406;28;20042;-85
2022/01/07 00:04:52;;;;;;;23.67;7.20;;;4.00;99.90;;;;;;5090291;28;20027;-85
2022/01/07 00:07:17;;;;;;;18.95;6.57;;;4.10;99.90;;;;;;5105674;28;20031;-85
2022/01/07 00:09:43;;;;;;;19.42;7.30;;;4.00;99.90;;;;;;5087983;28;20522;-85
2022/01/07 00:12:10;;;;;;;20.15;6.75;;;4.00;99.90;;;;;;5107389;28;20027;-85
2022/01/07 00:14:35;;;;;;;18.95;5.88;;;4.00;99.90;;;;;;5089162;28;20050;-85
2022/01/07 00:17:01;;;;;;;16.70;6.30;;;4.00;99.90;;;;;;5106574;28;20036;-85
2022/01/07 00:19:27;;;;;;;16.42;6.25;;;4.00;99.90;;;;;;5106656;28;20027;-84
2022/01/07 00:21:52;;;;;;;16.23;5.95;;;4.00;99.90;;;;;;5090303;28;20043;-85
2022/01/07 00:24:18;;;;;;;16.40;6.05;;;4.00;99.90;;;;;;5072754;28;20413;-84
2022/01/07 00:26:44;;;;;;;18.65;6.35;;;4.00;99.90;;;;;;5072908;28;20092;-85
2022/01/07 00:29:09;;;;;;;16.15;6.13;;;4.10;99.90;;;;;;5071249;27;20062;-85
2022/01/07 00:31:35;;;;;;;20.77;6.68;;;4.00;99.90;;;;;;5073859;28;20039;-84
2022/01/07 00:34:00;;;;;;;20.45;7.07;;;4.10;99.90;;;;;;5072796;28;20149;-85
2022/01/07 00:36:27;;;;;;;18.67;6.10;;;4.10;99.90;;;;;;5106608;28;20131;-85
2022/01/07 00:38:53;;;;;;;16.15;6.10;;;4.10;99.90;;;;;;5088987;28;20108;-84
2022/01/07 00:41:18;;;;;;;13.32;5.72;;;4.10;99.90;;;;;;5105782;28;20052;-85
2022/01/07 00:43:44;;;;;;;14.32;5.85;;;4.10;99.90;;;;;;5071204;28;20035;-84
2022/01/07 00:46:09;;;;;;;18.27;6.13;;;4.10;99.90;;;;;;5073112;28;20087;-85
2022/01/07 00:48:35;;;;;;;16.23;6.65;;;4.10;99.90;;;;;;5089373;28;20084;-85
2022/01/07 00:51:01;;;;;;;16.92;6.53;;;4.10;99.90;;;;;;5073244;28;20100;-85
2022/01/07 00:53:26;;;;;;;20.10;7.05;;;4.10;99.90;;;;;;5089434;28;20050;-84
2022/01/07 00:55:52;;;;;;;16.38;5.60;;;4.00;99.90;;;;;;5090546;28;20050;-85
2022/01/07 00:58:18;;;;;;;14.48;5.80;;;4.00;99.90;;;;;;5104316;28;20077;-85
2022/01/07 01:00:43;;;;;;;21.95;6.55;;;4.00;99.90;;;;;;5105735;28;20440;-85
2022/01/07 01:03:09;;;;;;;16.55;7.07;;;4.00;99.90;;;;;;5102603;28;20898;-85
2022/01/07 01:05:36;;;;;;;17.83;6.30;;;3.90;99.90;;;;;;5081272;28;20455;-85
2022/01/07 01:08:02;;;;;;;19.77;6.90;;;3.90;99.90;;;;;;5088917;28;20346;-86
2022/01/07 01:10:28;;;;;;;16.70;6.88;;;3.80;99.90;;;;;;5075707;28;20069;-85
2022/01/07 01:12:55;;;;;;;17.27;6.18;;;3.80;99.90;;;;;;5075421;28;20063;-85
2022/01/07 01:15:24;;;;;;;21.48;7.10;;;3.80;99.90;;;;;;5074997;28;20046;-86
2022/01/07 01:17:54;;;;;;;22.58;7.00;;;3.80;99.90;;;;;;5109959;28;20347;-85
2022/01/07 01:20:21;;;;;;;15.82;6.65;;;3.70;99.90;;;;;;5076378;28;20102;-85
2022/01/07 01:22:47;;;;;;;14.98;7.13;;;3.70;99.90;;;;;;5092678;28;20512;-85
2022/01/07 01:25:13;;;;;;;20.05;6.47;;;3.60;99.90;;;;;;5092459;28;22719;-85
2022/01/07 01:27:40;;;;;;;19.45;7.32;;;3.60;99.90;;;;;;5092929;28;20853;-85
2022/01/07 01:30:08;;;;;;;23.52;7.22;;;3.60;99.90;;;;;;5090668;27;20047;-85
2022/01/07 01:32:36;;;;;;;15.82;6.78;;;3.60;99.90;;;;;;5075681;28;20390;-86
2022/01/07 01:35:02;;;;;;;16.67;7.00;;;3.60;99.90;;;;;;5093177;28;20028;-85
2022/01/07 01:37:29;;;;;;;17.15;7.43;;;3.50;99.90;;;;;;5095210;28;20052;-85
2022/01/07 01:39:55;;;;;;;20.02;8.13;;;3.50;99.90;;;;;;5092243;28;20035;-85
2022/01/07 01:42:21;;;;;;;17.83;6.70;;;3.50;99.90;;;;;;5109274;28;20038;-86
2022/01/07 01:44:46;;;;;;;16.25;7.20;;;3.50;99.90;;;;;;5090483;28;20036;-86
2022/01/07 01:47:12;;;;;;;17.92;7.93;;;3.50;99.90;;;;;;5110075;28;20035;-85
2022/01/07 01:49:38;;;;;;;17.88;7.70;;;3.50;99.90;;;;;;5075357;28;20031;-86
2022/01/07 01:52:04;;;;;;;19.02;7.80;;;3.50;99.90;;;;;;5092085;28;20043;-86
2022/01/07 01:54:29;;;;;;;27.08;8.82;;;3.50;99.90;;;;;;5091736;28;20095;-86
2022/01/07 01:56:55;;;;;;;17.58;8.20;;;3.50;99.90;;;;;;5076161;28;20405;-86
2022/01/07 01:59:29;;;;;;;22.60;8.55;;;3.50;99.90;;;;;;5106050;27;20024;-86
2022/01/07 02:01:55;;;;;;;18.77;8.10;;;3.50;99.90;;;;;;5109535;28;20035;-86
2022/01/07 02:04:21;;;;;;;19.05;8.05;;;3.40;99.90;;;;;;5110193;28;20032;-86
2022/01/07 02:06:48;;;;;;;22.10;9.25;;;3.40;99.90;;;;;;5093143;27;20516;-85
2022/01/07 02:09:14;;;;;;;20.98;8.15;;;3.40;99.90;;;;;;5076129;28;20054;-86
2022/01/07 02:11:40;;;;;;;19.08;8.90;;;3.40;99.90;;;;;;5112047;27;20040;-86
2022/01/07 02:14:06;;;;;;;22.08;8.80;;;3.40;99.90;;;;;;5105685;28;20043;-86
2022/01/07 02:16:32;;;;;;;23.60;9.15;;;3.40;99.90;;;;;;5075174;28;20084;-86
2022/01/07 02:18:58;;;;;;;21.50;8.55;;;3.40;99.90;;;;;;5074509;28;20106;-86
2022/01/07 02:21:25;;;;;;;23.33;9.07;;;3.40;99.90;;;;;;5075678;28;20032;-86
2022/01/07 02:23:51;;;;;;;17.52;8.70;;;3.40;99.90;;;;;;5074925;28;20496;-86
2022/01/07 02:26:19;;;;;;;18.48;8.75;;;3.40;99.90;;;;;;5075356;28;20071;-86
2022/01/07 02:28:45;;;;;;;20.25;8.70;;;3.40;99.90;;;;;;5090190;28;20053;-86
2022/01/07 02:31:11;;;;;;;23.00;9.25;;;3.40;99.90;;;;;;5092500;28;20123;-86
2022/01/07 02:33:36;;;;;;;21.33;8.90;;;3.40;99.90;;;;;;5093963;28;20168;-86
2022/01/07 02:36:06;;;;;;;20.27;8.88;;;3.40;99.90;;;;;;5074297;28;20099;-86
2022/01/07 02:38:32;;;;;;;25.30;10.10;;;3.40;99.90;;;;;;5074989;28;20048;-85
2022/01/07 02:40:58;;;;;;;21.08;9.13;;;3.40;99.90;;;;;;5075023;28;20038;-86
2022/01/07 02:43:23;;;;;;;23.70;9.48;;;3.40;99.90;;;;;;5107206;28;20505;-86
2022/01/07 02:45:49;;;;;;;21.92;10.27;;;3.40;99.90;;;;;;5093157;28;20047;-87
2022/01/07 02:48:15;;;;;;;25.33;10.25;;;3.40;99.90;;;;;;5089055;28;20126;-87
2022/01/07 02:50:40;;;;;;;21.90;10.07;;;3.40;99.90;;;;;;5110031;28;20389;-87
2022/01/07 02:53:09;;;;;;;24.42;10.18;;;3.40;99.90;;;;;;5077191;28;20081;-87
2022/01/07 02:55:36;;;;;;;17.58;9.98;;;3.30;99.90;;;;;;5075568;28;20447;-87
2022/01/07 02:58:02;;;;;;;21.05;9.80;;;3.30;99.90;;;;;;5090143;27;20588;-87
2022/01/07 03:00:28;;;;;;;21.27;11.02;;;3.40;99.90;;;;;;5091012;28;20031;-86
2022/01/07 03:02:56;;;;;;;23.02;10.57;;;3.40;99.90;;;;;;5091122;28;20530;-86
2022/01/07 03:05:22;;;;;;;20.48;10.50;;;3.40;99.90;;;;;;5092409;27;20110;-86
2022/01/07 03:07:48;;;;;;;20.45;11.32;;;3.40;99.90;;;;;;5074362;28;20046;-86
2022/01/07 03:10:16;;;;;;;20.63;10.00;;;3.40;99.90;;;;;;5090745;28;20051;-86
2022/01/07 03:12:43;;;;;;;19.90;10.00;;;3.40;99.90;;;;;;5095968;27;20046;-86
2022/01/07 03:15:11;;;;;;;20.25;10.32;;;3.40;99.90;;;;;;5098510;27;20122;-86
2022/01/07 03:17:40;;;;;;;18.83;10.52;;;3.40;99.90;;;;;;5090324;28;20040;-86
2022/01/07 03:20:12;;;;;;;16.40;10.80;;;3.40;99.90;;;;;;5089383;28;20046;-86
2022/01/07 03:22:39;;;;;;;23.90;10.90;;;3.40;99.90;;;;;;5090449;28;20114;-86
2022/01/07 03:25:06;;;;;;;23.67;11.48;;;3.40;99.90;;;;;;5072822;28;20042;-86
2022/01/07 03:27:32;;;;;;;17.30;10.32;;;3.40;99.90;;;;;;5090019;27;20092;-86
2022/01/07 03:29:57;;;;;;;23.15;11.10;;;3.40;99.90;;;;;;5107332;27;20066;-86
2022/01/07 03:32:24;;;;;;;19.55;10.60;;;3.40;99.90;;;;;;5115110;27;20054;-86
2022/01/07 03:34:53;;;;;;;20.83;10.93;;;3.40;99.90;;;;;;5097780;27;20042;-86
2022/01/07 03:37:19;;;;;;;21.98;10.35;;;3.40;99.90;;;;;;5090985;27;20031;-85
2022/01/07 03:39:45;;;;;;;19.33;10.38;;;3.40;99.90;;;;;;5083026;28;20171;-86
2022/01/07 03:42:11;;;;;;;18.48;10.77;;;3.40;99.90;;;;;;5097907;27;20122;-86
2022/01/07 03:44:36;;;;;;;21.23;11.15;;;3.50;99.90;;;;;;5095011;27;20034;-86
2022/01/07 03:47:03;;;;;;;19.35;10.15;;;3.50;99.90;;;;;;5090046;28;20097;-86
2022/01/07 03:49:28;;;;;;;18.10;10.15;;;3.40;99.90;;;;;;5108326;27;20128;-86
2022/01/07 03:51:54;;;;;;;17.42;10.90;;;3.40;99.90;;;;;;5080912;27;20541;-86
2022/01/07 03:54:20;;;;;;;24.98;11.98;;;3.40;99.90;;;;;;5103703;27;20038;-86
2022/01/07 03:56:46;;;;;;;19.80;11.00;;;3.50;99.90;;;;;;5075261;28;20412;-86
2022/01/07 03:59:11;;;;;;;18.42;11.00;;;3.50;99.90;;;;;;5086755;28;20071;-86
2022/01/07 04:01:37;;;;;;;21.80;11.30;;;3.50;99.90;;;;;;5113666;27;20560;-85
2022/01/07 04:04:03;;;;;;;20.15;10.90;;;3.50;99.90;;;;;;5079449;27;20115;-86
2022/01/07 04:06:29;;;;;;;25.02;11.80;;;3.50;99.90;;;;;;5095282;27;20031;-86
2022/01/07 04:08:54;;;;;;;20.02;10.80;;;3.50;99.90;;;;;;5073068;28;20039;-85
2022/01/07 04:11:20;;;;;;;18.17;10.57;;;3.60;99.90;;;;;;5111478;27;20027;-86
2022/01/07 04:13:46;;;;;;;23.13;12.45;;;3.50;99.90;;;;;;5083339;27;20085;-86
2022/01/07 04:16:12;;;;;;;22.67;10.73;;;3.50;99.90;;;;;;5089775;28;20038;-86
2022/01/07 04:18:38;;;;;;;21.67;11.02;;;3.60;99.90;;;;;;5093101;27;20404;-86
2022/01/07 04:21:04;;;;;;;21.05;11.10;;;3.50;99.90;;;;;;5095425;27;20034;-86
2022/01/07 04:23:30;;;;;;;21.67;10.43;;;3.50;99.90;;;;;;5100056;27;20026;-86
2022/01/07 04:25:56;;;;;;;22.30;11.27;;;3.50;99.90;;;;;;5099625;28;20507;-86
2022/01/07 04:28:22;;;;;;;22.23;11.60;;;3.50;99.90;;;;;;5108419;27;20300;-86
2022/01/07 04:30:48;;;;;;;19.17;10.55;;;3.50;99.90;;;;;;5073526;28;20492;-86
2022/01/07 04:33:20;;;;;;;19.70;10.88;;;3.50;99.90;;;;;;5106866;28;20050;-85
2022/01/07 04:35:46;;;;;;;22.83;10.52;;;3.50;99.90;;;;;;5079786;28;20053;-86
2022/01/07 04:38:12;;;;;;;19.85;10.95;;;3.50;99.90;;;;;;5096082;28;20052;-87
2022/01/07 04:40:37;;;;;;;19.35;10.77;;;3.50;99.90;;;;;;5081118;28;20059;-86
2022/01/07 04:43:06;;;;;;;21.80;11.98;;;3.50;99.90;;;;;;5101938;27;20043;-85
2022/01/07 04:45:32;;;;;;;17.50;10.55;;;3.50;99.90;;;;;;5087545;27;20074;-86
2022/01/07 04:47:57;;;;;;;20.48;10.40;;;3.50;99.90;;;;;;5078942;28;20039;-86
2022/01/07 04:50:23;;;;;;;19.98;10.00;;;3.50;99.90;;;;;;5078655;28;20634;-86
2022/01/07 04:52:50;;;;;;;21.63;10.48;;;3.60;99.90;;;;;;5095870;28;20058;-86
2022/01/07 04:55:24;;;;;;;19.48;10.85;;;3.60;99.90;;;;;;5076961;28;20044;-86
2022/01/07 04:57:50;;;;;;;21.00;11.15;;;3.60;99.90;;;;;;5095381;28;20039;-86
2022/01/07 05:00:18;;;;;;;21.80;10.90;;;3.60;99.90;;;;;;5078600;28;20027;-86
2022/01/07 05:02:43;;;;;;;17.48;10.30;;;3.60;99.90;;;;;;5090981;28;20027;-85
2022/01/07 05:05:09;;;;;;;20.65;10.07;;;3.60;99.90;;;;;;5113743;27;20154;-86
2022/01/07 05:07:36;;;;;;;20.35;10.73;;;3.60;99.90;;;;;;5095878;28;20046;-85
2022/01/07 05:10:05;;;;;;;15.05;10.18;;;3.60;99.90;;;;;;5078590;28;20035;-86
2022/01/07 05:12:31;;;;;;;17.45;10.00;;;3.60;99.90;;;;;;5095159;28;20039;-86
2022/01/07 05:14:57;;;;;;;20.42;10.73;;;3.60;99.90;;;;;;5095785;28;20079;-85
2022/01/07 05:17:22;;;;;;;17.23;10.30;;;3.60;99.90;;;;;;5078794;27;20031;-86
2022/01/07 05:19:48;;;;;;;15.68;9.85;;;3.60;99.90;;;;;;5079063;28;20039;-85
2022/01/07 05:22:14;;;;;;;19.20;9.27;;;3.60;99.90;;;;;;5112143;28;20032;-86
2022/01/07 05:24:39;;;;;;;15.80;9.38;;;3.70;99.90;;;;;;5095941;28;20043;-85
2022/01/07 05:27:05;;;;;;;16.90;9.45;;;3.60;99.90;;;;;;5110341;27;20130;-86
2022/01/07 05:29:34;;;;;;;14.30;9.35;;;3.60;99.90;;;;;;5094242;28;20039;-86
2022/01/07 05:32:04;;;;;;;13.75;9.50;;;3.70;99.90;;;;;;5095306;28;20044;-86
2022/01/07 05:34:30;;;;;;;14.80;8.95;;;3.70;99.90;;;;;;5093243;28;20047;-85
2022/01/07 05:36:56;;;;;;;16.25;9.10;;;3.60;99.90;;;;;;5094613;28;20071;-85
2022/01/07 05:39:22;;;;;;;13.75;8.90;;;3.60;99.90;;;;;;5079219;28;20043;-85
2022/01/07 05:41:48;;;;;;;13.68;9.13;;;3.70;99.90;;;;;;5079010;28;20046;-86
2022/01/07 05:44:13;;;;;;;16.40;8.95;;;3.60;99.90;;;;;;5094475;28;20043;-86
2022/01/07 05:46:39;;;;;;;14.48;8.85;;;3.60;99.90;;;;;;5082043;28;20377;-86
2022/01/07 05:49:04;;;;;;;14.07;8.93;;;3.60;99.90;;;;;;5081851;27;20053;-85
2022/01/07 05:51:30;;;;;;;14.35;8.80;;;3.60;99.90;;;;;;5102863;28;20051;-85
2022/01/07 05:53:56;;;;;;;10.27;7.90;;;3.70;99.90;;;;;;5111566;28;20531;-85
2022/01/07 05:56:21;;;;;;;14.10;8.43;;;3.70;99.90;;;;;;5109203;28;20408;-85
2022/01/07 05:58:47;;;;;;;14.52;8.70;;;3.70;99.90;;;;;;5108518;28;20059;-86
2022/01/07 06:01:13;;;;;;;12.38;8.15;;;3.70;99.90;;;;;;5109952;28;20113;-86
2022/01/07 06:03:41;;;;;;;15.13;9.48;;;3.70;99.90;;;;;;5108550;28;20040;-85
2022/01/07 06:06:07;;;;;;;13.18;8.38;;;3.70;99.90;;;;;;5075190;28;20189;-85
2022/01/07 06:08:34;;;;;;;13.55;8.25;;;3.70;99.90;;;;;;5108059;28;20039;-86
2022/01/07 06:10:59;;;;;;;15.80;8.90;;;3.70;99.90;;;;;;5074696;28;20039;-85
2022/01/07 06:13:25;;;;;;;13.45;9.23;;;3.70;99.90;;;;;;5073648;28;20045;-85
2022/01/07 06:15:51;;;;;;;11.77;8.00;;;3.70;99.90;;;;;;5075212;28;20059;-86
2022/01/07 06:18:17;;;;;;;13.10;8.13;;;3.70;99.90;;;;;;5093350;28;20032;-85
2022/01/07 06:20:43;;;;;;;13.98;8.15;;;3.70;99.90;;;;;;5091878;28;20036;-85
2022/01/07 06:23:09;;;;;;;13.35;7.70;;;3.70;99.90;;;;;;5090897;28;20040;-86
2022/01/07 06:25:34;;;;;;;15.90;7.97;;;3.70;99.90;;;;;;5071063;28;20040;-85
2022/01/07 06:28:00;;;;;;;14.50;7.68;;;3.70;99.90;;;;;;5077409;28;20043;-86
2022/01/07 06:30:25;;;;;;;13.32;7.80;;;3.70;99.90;;;;;;5073853;27;20097;-86
2022/01/07 06:32:52;;;;;;;15.70;9.02;;;3.80;99.90;;;;;;5074731;28;20032;-86
2022/01/07 06:35:18;;;;;;;13.88;7.88;;;3.70;99.90;;;;;;5075738;28;20028;-85
2022/01/07 06:37:44;;;;;;;13.10;8.02;;;3.80;99.90;;;;;;5108315;28;20070;-85
2022/01/07 06:40:10;;;;;;;14.43;8.68;;;3.80;99.90;;;;;;5075596;28;20102;-85
2022/01/07 06:42:36;;;;;;;18.80;9.20;;;3.80;99.90;;;;;;5076449;28;20416;-85
2022/01/07 06:45:04;;;;;;;11.18;7.60;;;3.80;99.90;;;;;;5107748;28;20028;-85
2022/01/07 06:47:29;;;;;;;15.98;8.57;;;3.80;99.90;;;;;;5074879;28;20038;-85
2022/01/07 06:49:55;;;;;;;14.88;9.25;;;3.80;99.90;;;;;;5073516;28;20408;-85
2022/01/07 06:52:21;;;;;;;13.77;8.02;;;3.80;99.90;;;;;;5081013;28;20076;-85
2022/01/07 06:54:46;;;;;;;11.80;8.45;;;3.80;99.90;;;;;;5096811;28;20036;-85
2022/01/07 06:57:12;;;;;;;14.40;9.13;;;3.80;99.90;;;;;;5108374;28;20032;-85
2022/01/07 06:59:38;;;;;;;13.82;8.40;;;3.80;99.90;;;;;;5107085;28;20044;-86
2022/01/07 07:02:03;;;;;;;13.23;8.75;;;3.90;99.90;;;;;;5075345;28;20469;-85
2022/01/07 07:04:29;;;;;;;12.48;9.10;;;3.90;99.90;;;;;;5108558;27;20040;-85
2022/01/07 07:06:55;;;;;;;12.00;8.70;;;3.90;99.90;;;;;;5090443;28;20477;-85
2022/01/07 07:09:21;;;;;;;12.55;8.68;;;3.90;99.90;;;;;;5108919;28;20138;-85
2022/01/07 07:11:46;;;;;;;13.75;8.38;;;3.90;99.90;;;;;;5093570;28;20092;-86
2022/01/07 07:14:13;;;;;;;15.98;9.70;;;3.90;99.90;;;;;;5072985;28;20039;-85
2022/01/07 07:16:39;;;;;;;13.05;9.15;;;4.00;99.90;;;;;;5074637;28;20039;-86
2022/01/07 07:19:05;;;;;;;13.35;8.73;;;3.90;99.90;;;;;;5090734;27;20032;-85
2022/01/07 07:21:31;;;;;;;14.02;9.05;;;3.90;99.90;;;;;;5086379;28;20036;-86
2022/01/07 07:23:56;;;;;;;15.93;9.13;;;4.00;99.90;;;;;;5089581;28;20488;-86
2022/01/07 07:26:22;;;;;;;16.30;9.48;;;4.00;99.90;;;;;;5074461;28;20061;-85
2022/01/07 07:28:48;;;;;;;15.25;9.57;;;4.00;99.90;;;;;;5106111;28;20035;-85
2022/01/07 07:31:17;;;;;;;13.90;8.93;;;4.00;99.90;;;;;;5107250;28;20047;-85
2022/01/07 07:36:31;;;;;;;16.80;10.15;;;4.00;99.90;;;;;;5088977;28;20303;-85
2022/01/07 07:38:58;;;;;;;18.40;11.25;;;4.10;99.90;;;;;;5072973;27;20515;-85
2022/01/07 07:41:25;;;;;;;15.10;10.25;;;4.10;99.90;;;;;;5072596;28;20032;-85
2022/01/07 07:43:50;;;;;;;16.80;10.73;;;4.10;99.90;;;;;;5072831;28;20051;-85
2022/01/07 07:46:20;;;;;;;19.05;11.10;;;4.10;99.90;;;;;;5091121;28;20123;-85
2022/01/07 07:48:46;;;;;;;17.48;11.23;;;4.10;99.90;;;;;;5086356;28;20120;-85
2022/01/07 07:51:13;;;;;;;20.75;12.20;;;4.10;99.90;;;;;;5076951;28;20046;-85
2022/01/07 07:53:39;;;;;;;20.20;12.05;;;4.20;99.90;;;;;;5073350;27;20044;-85
2022/01/07 07:56:05;;;;;;;19.45;12.05;;;4.20;99.90;;;;;;5089595;28;20047;-85
2022/01/07 07:58:31;;;;;;;20.98;13.80;;;4.20;99.90;;;;;;5072420;28;20035;-84
2022/01/07 08:00:56;;;;;;;19.13;12.55;;;4.20;99.90;;;;;;5072682;28;20063;-85
2022/01/07 08:03:24;;;;;;;19.40;12.98;;;4.20;99.90;;;;;;5090159;28;20046;-85
2022/01/07 08:05:49;;;;;;;22.00;12.90;;;4.20;99.90;;;;;;5091405;28;20131;-85
2022/01/07 08:08:15;;;;;;;18.63;12.23;;;4.30;99.90;;;;;;5105063;27;20095;-85
2022/01/07 08:10:47;;;;;;;24.88;13.77;;;4.30;99.90;;;;;;5087757;28;20036;-85
2022/01/07 08:18:27;;;;;;;22.73;14.00;;;4.40;99.90;;;;;;5105795;28;20249;-85
2022/01/07 08:20:54;;;;;;;23.55;14.10;;;4.40;99.90;;;;;;5086655;27;20040;-85
2022/01/07 08:23:20;;;;;;;26.77;14.85;;;4.40;99.90;;;;;;5079705;27;20518;-84
2022/01/07 08:25:46;;;;;;;22.67;14.50;;;4.40;99.90;;;;;;5117884;27;20203;-85
2022/01/07 08:28:13;;;;;;;24.35;14.32;;;4.40;99.90;;;;;;5109069;27;20107;-85
2022/01/07 08:36:10;;;;;;;23.73;14.50;;;4.50;99.90;;;;;;5087452;28;20066;-84
2022/01/07 08:38:35;;;;;;;23.23;14.65;;;4.50;99.90;;;;;;5075143;28;20290;-84
2022/01/07 08:41:01;;;;;;;27.25;15.10;;;4.50;99.90;;;;;;5072957;28;20194;-83
2022/01/07 08:43:27;;;;;;;28.42;16.27;;;4.60;99.90;;;;;;5071841;28;20051;-85
2022/01/07 08:45:52;;;;;;;25.30;15.38;;;4.60;99.90;;;;;;5099375;28;20034;-85
2022/01/07 08:48:18;;;;;;;30.55;17.13;;;4.60;99.90;;;;;;5088121;28;20043;-86
2022/01/07 08:50:44;;;;;;;25.20;15.80;;;4.60;99.90;;;;;;5085579;28;20059;-85
2022/01/07 08:53:11;;;;;;;31.65;17.02;;;4.60;99.90;;;;;;5087577;28;20405;-85
2022/01/07 08:55:37;;;;;;;26.90;16.00;;;4.70;99.90;;;;;;5085119;28;20046;-86
2022/01/07 08:58:03;;;;;;;30.00;16.92;;;4.70;99.90;;;;;;5085974;28;20412;-86
2022/01/07 09:00:33;;;;;;;29.17;16.63;;;4.80;99.90;;;;;;5069514;28;20031;-85
2022/01/07 09:03:00;;;;;;;34.17;18.52;;;4.80;99.90;;;;;;5083961;28;20067;-85
2022/01/07 09:05:26;;;;;;;28.75;18.02;;;4.80;99.90;;;;;;5079918;28;20036;-86
2022/01/07 09:07:52;;;;;;;31.40;18.25;;;4.80;99.90;;;;;;5083449;28;20032;-86
2022/01/07 09:10:17;;;;;;;29.38;17.10;;;4.90;99.90;;;;;;5069991;28;20450;-86
2022/01/07 09:12:44;;;;;;;31.60;17.27;;;4.90;99.90;;;;;;5070806;28;20170;-86
2022/01/07 09:15:10;;;;;;;29.77;17.10;;;5.00;99.90;;;;;;5069467;28;20362;-85
2022/01/07 09:17:35;;;;;;;28.02;17.83;;;5.00;99.90;;;;;;5088022;28;20079;-85
2022/01/07 09:20:03;;;;;;;29.70;17.42;;;5.00;99.90;;;;;;5071679;28;20284;-85
2022/01/07 09:22:28;;;;;;;37.33;19.20;;;5.00;99.90;;;;;;5087443;28;20092;-85
2022/01/07 09:24:54;;;;;;;30.17;17.80;;;5.00;99.90;;;;;;5070188;28;20047;-84
2022/01/07 09:27:20;;;;;;;31.52;18.15;;;5.00;99.90;;;;;;5066722;28;20122;-84
2022/01/07 09:29:46;;;;;;;35.97;19.40;;;5.10;99.90;;;;;;5102907;27;20039;-84
2022/01/07 09:32:12;;;;;;;36.58;18.95;;;5.00;99.90;;;;;;5073885;27;20437;-86
2022/01/07 09:34:38;;;;;;;38.22;17.73;;;5.10;99.90;;;;;;5107056;27;20115;-85
2022/01/07 09:37:04;;;;;;;28.73;18.48;;;5.10;99.90;;;;;;5076085;28;20541;-83
2022/01/07 09:39:32;;;;;;;30.30;18.52;;;5.10;99.90;;;;;;5076097;28;20040;-83
2022/01/07 09:41:59;;;;;;;34.65;18.83;;;5.10;99.90;;;;;;5082157;28;20043;-86
2022/01/07 09:44:25;;;;;;;34.92;18.90;;;5.20;99.90;;;;;;5091958;28;20153;-84
2022/01/07 09:46:51;;;;;;;32.88;18.80;;;5.20;99.90;;;;;;5076282;28;20075;-85
2022/01/07 09:49:17;;;;;;;31.92;18.35;;;5.20;99.90;;;;;;5090948;27;20071;-85
2022/01/07 09:51:43;;;;;;;34.42;19.58;;;5.20;99.90;;;;;;5089570;28;20043;-85
2022/01/07 09:54:09;;;;;;;34.88;20.02;;;5.30;99.90;;;;;;5091995;27;20104;-85
2022/01/07 09:56:36;;;;;;;32.55;19.25;;;5.20;99.90;;;;;;5109863;27;20062;-85
2022/01/07 09:59:05;;;;;;;39.13;20.02;;;5.30;99.90;;;;;;5093253;27;20035;-85
2022/01/07 10:01:52;;;;;;;38.58;21.27;;;5.20;99.90;;;;;;5093830;27;20036;-85
2022/01/07 10:04:39;;;;;;;39.63;21.08;;;5.30;99.90;;;;;;5089642;28;20114;-85
2022/01/07 10:07:16;;;;;;;30.70;18.77;;;5.30;99.90;;;;;;5083872;28;20050;-84
2022/01/07 10:10:09;;;;;;;31.80;18.73;;;5.30;99.90;;;;;;5089539;28;20145;-83
2022/01/07 10:12:49;;;;;;;29.85;17.27;;;5.30;99.90;;;;;;5076516;28;20044;-85
2022/01/07 10:15:20;;;;;;;29.25;16.83;;;5.30;99.90;;;;;;5090706;28;20040;-84
2022/01/07 10:17:55;;;;;;;23.10;13.32;;;5.30;99.90;;;;;;5092897;27;20118;-84
2022/01/07 10:20:32;;;;;;;29.33;14.18;;;5.30;99.90;;;;;;5093949;27;20031;-84
2022/01/07 10:23:03;;;;;;;25.10;12.18;;;5.20;99.90;;;;;;5090417;28;20031;-85
2022/01/07 10:25:43;;;;;;;20.98;11.23;;;5.20;99.90;;;;;;5088885;27;20161;-86
2022/01/07 10:28:16;;;;;;;14.68;8.38;;;5.20;99.90;;;;;;5075811;28;20092;-87
2022/01/07 10:30:47;;;;;;;13.52;8.07;;;5.20;99.90;;;;;;5092891;28;20088;-87
2022/01/07 10:33:22;;;;;;;13.45;6.93;;;5.20;99.90;;;;;;5090663;28;20446;-86
2022/01/07 10:35:51;;;;;;;13.68;6.90;;;5.20;99.90;;;;;;5092630;27;20059;-86
2022/01/07 10:38:22;;;;;;;14.90;6.18;;;5.20;99.90;;;;;;5090133;27;20051;-87
2022/01/07 10:40:50;;;;;;;11.38;6.50;;;5.20;99.90;;;;;;5090747;28;20065;-86
2022/01/07 10:43:20;;;;;;;14.25;7.07;;;5.10;99.90;;;;;;5076815;28;20043;-86
2022/01/07 10:45:52;;;;;;;12.13;6.85;;;5.10;99.90;;;;;;5068765;28;20040;-87
2022/01/07 10:48:20;;;;;;;15.63;8.48;;;5.00;99.90;;;;;;5069036;28;20082;-87
2022/01/07 10:50:47;;;;;;;15.45;8.20;;;5.00;99.90;;;;;;5064476;28;20047;-85
2022/01/07 10:53:24;;;;;;;16.35;9.65;;;5.00;99.90;;;;;;5086558;28;20035;-85
2022/01/07 10:56:21;;;;;;;19.13;9.75;;;5.00;99.90;;;;;;5072717;27;20497;-84
2022/01/07 10:58:46;;;;;;;17.23;10.05;;;5.00;99.90;;;;;;5084360;28;20296;-85
2022/01/07 11:01:21;;;;;;;16.15;9.40;;;5.00;99.90;;;;;;5072127;28;20294;-85
2022/01/07 11:03:54;;;;;;;19.90;10.75;;;5.10;99.90;;;;;;5072005;28;20161;-85
2022/01/07 11:06:21;;;;;;;20.17;10.95;;;5.10;99.90;;;;;;5070513;28;20480;-86
2022/01/07 11:08:49;;;;;;;17.08;10.00;;;5.20;99.90;;;;;;5084714;28;20389;-86
2022/01/07 11:11:15;;;;;;;16.88;9.18;;;5.20;99.90;;;;;;5088129;28;20112;-86
2022/01/07 11:13:42;;;;;;;16.58;8.82;;;5.30;99.90;;;;;;5071444;27;20086;-85
2022/01/07 11:16:08;;;;;;;15.98;8.13;;;5.30;99.90;;;;;;5075885;28;20046;-85
2022/01/07 11:18:37;;;;;;;15.57;7.85;;;5.40;99.90;;;;;;5072018;28;20027;-86
2022/01/07 11:21:04;;;;;;;18.65;8.57;;;5.40;99.90;;;;;;5086467;28;20032;-87
2022/01/07 11:23:31;;;;;;;19.08;8.23;;;5.40;99.90;;;;;;5074339;28;20047;-85
2022/01/07 11:26:04;;;;;;;17.70;8.88;;;5.40;99.90;;;;;;5071915;28;20043;-86
2022/01/07 11:28:30;;;;;;;16.73;9.57;;;5.40;99.90;;;;;;5087669;28;20054;-85
2022/01/07 11:31:11;;;;;;;23.63;10.48;;;5.50;99.90;;;;;;5089354;28;20035;-85
2022/01/07 11:33:37;;;;;;;21.48;10.45;;;5.60;99.90;;;;;;5087400;28;20046;-86
2022/01/07 11:36:04;;;;;;;21.63;11.32;;;5.60;99.90;;;;;;5088551;28;20247;-85
2022/01/07 11:38:50;;;;;;;19.42;12.13;;;5.60;99.90;;;;;;5069885;28;20052;-86
2022/01/07 11:41:41;;;;;;;22.63;11.70;;;5.60;99.90;;;;;;5069730;28;20091;-85
2022/01/07 11:44:20;;;;;;;25.58;13.02;;;5.60;99.90;;;;;;5066961;28;20040;-86
2022/01/07 11:46:46;;;;;;;21.63;11.63;;;5.60;99.90;;;;;;5070153;28;20610;-86
2022/01/07 11:49:35;;;;;;;24.83;12.60;;;5.60;99.90;;;;;;5060430;28;20039;-86
2022/01/07 11:52:30;;;;;;;22.52;12.75;;;5.50;99.90;;;;;;5071754;28;20058;-87
2022/01/07 11:55:36;;;;;;;28.92;16.73;;;5.50;99.90;;;;;;5065014;28;20044;-86
2022/01/07 11:58:06;;;;;;;22.80;12.65;;;5.50;99.90;;;;;;5077479;28;20055;-85
2022/01/07 12:00:56;;;;;;;23.25;12.80;;;5.50;99.90;;;;;;5080008;28;20036;-86
2022/01/07 12:03:45;;;;;;;22.05;12.68;;;5.50;99.90;;;;;;5069472;28;20028;-83
2022/01/07 12:06:24;;;;;;;22.92;14.40;;;5.50;99.90;;;;;;5087251;28;20528;-86
2022/01/07 12:08:58;;;;;;;19.38;11.75;;;5.50;99.90;;;;;;5087987;28;20389;-90
2022/01/07 12:11:26;;;;;;;31.30;19.75;;;5.50;99.90;;;;;;5065615;28;20082;-87
2022/01/07 12:13:52;;;;;;;43.78;28.67;;;5.50;99.90;;;;;;5086311;28;20070;-87
2022/01/07 12:16:26;;;;;;;19.42;11.15;;;5.50;99.90;;;;;;5086198;28;20040;-86
2022/01/07 12:19:01;;;;;;;17.67;10.38;;;5.60;99.90;;;;;;5087270;28;20039;-86
2022/01/07 12:21:27;;;;;;;23.38;12.40;;;5.60;99.90;;;;;;5088564;28;20039;-86
2022/01/07 12:24:06;;;;;;;13.93;8.10;;;5.60;99.90;;;;;;5083011;28;20392;-87
2022/01/07 12:26:32;;;;;;;11.82;6.82;;;5.70;99.90;;;;;;5084823;28;20035;-87
2022/01/07 12:28:57;;;;;;;9.68;4.50;;;5.80;99.90;;;;;;5085403;28;20043;-86
2022/01/07 12:31:23;;;;;;;15.40;6.70;;;5.80;99.90;;;;;;5068284;28;20541;-84
2022/01/07 12:33:54;;;;;;;9.20;3.38;;;5.80;99.90;;;;;;5070708;28;20040;-85
2022/01/07 12:36:35;;;;;;;6.88;3.13;;;5.90;99.90;;;;;;5069275;28;20477;-82
2022/01/07 12:39:09;;;;;;;8.18;2.58;;;5.80;99.90;;;;;;5103714;27;20058;-86
2022/01/07 12:41:50;;;;;;;8.30;2.72;;;5.80;99.90;;;;;;5072230;28;20104;-93
2022/01/07 12:44:16;;;;;;;8.32;2.78;;;5.80;99.90;;;;;;5071896;28;20047;-87
2022/01/07 12:46:58;;;;;;;5.97;2.20;;;5.70;99.90;;;;;;5089371;28;20031;-87
2022/01/07 12:49:36;;;;;;;5.03;1.40;;;5.70;99.90;;;;;;5089213;28;20458;-87
2022/01/07 12:52:16;;;;;;;8.10;1.60;;;5.70;99.90;;;;;;5073916;28;20092;-86
2022/01/07 12:55:05;;;;;;;9.00;2.00;;;5.70;99.90;;;;;;5056184;28;20054;-87
2022/01/07 12:57:42;;;;;;;5.88;1.60;;;5.70;99.90;;;;;;5091042;28;20040;-87
2022/01/07 13:00:22;;;;;;;6.90;1.20;;;5.70;99.90;;;;;;5077285;28;20193;-87